Time;durP1;ratioP1;P1;durP2;ratioP2;P2;SDS_P1;SDS_P2;PMS_P1;PMS_P2;Temp;Humidity;BMP_temperature;BMP_pressure;BME280_temperature;BME280_humidity;BME280_pressure;Samples;Min_cycle;Max_cycle;Signal;HPM_P1;HPM_P2
2022/07/16 00:02:43;;;;;;;0.75;0.60;;;;;;;28.51;32.53;99210.31;5101115;28;20059;-65
2022/07/16 00:05:09;;;;;;;0.70;0.60;;;;;;;28.52;32.73;99215.50;5096926;28;20027;-58
2022/07/16 00:07:34;;;;;;;1.13;0.80;;;;;;;28.51;32.89;99211.09;5093421;28;20087;-58
2022/07/16 00:10:00;;;;;;;1.05;0.77;;;;;;;28.52;32.84;99215.50;5097099;28;20048;-58
2022/07/16 00:12:26;;;;;;;1.15;0.73;;;;;;;28.47;32.86;99216.00;5104518;28;20051;-66
2022/07/16 00:14:52;;;;;;;1.30;0.90;;;;;;;28.46;32.93;99214.41;5094586;28;20154;-58
2022/07/16 00:17:18;;;;;;;1.05;0.70;;;;;;;28.47;33.04;99215.19;5094065;28;20119;-66
2022/07/16 00:19:43;;;;;;;0.80;0.60;;;;;;;28.49;32.90;99215.56;5094491;28;20075;-58
2022/07/16 00:22:09;;;;;;;0.85;0.68;;;;;;;28.49;33.02;99215.56;5095070;28;20070;-66
2022/07/16 00:24:35;;;;;;;0.85;0.68;;;;;;;28.51;32.92;99213.13;5111296;28;20422;-66
2022/07/16 00:27:01;;;;;;;0.98;0.70;;;;;;;28.49;32.95;99216.34;5110616;28;20048;-66
2022/07/16 00:29:26;;;;;;;1.38;0.90;;;;;;;28.50;33.08;99215.16;5103045;28;20044;-57
2022/07/16 00:31:54;;;;;;;0.90;0.70;;;;;;;28.51;32.89;99218.75;5107037;28;20494;-58
2022/07/16 00:34:21;;;;;;;0.88;0.65;;;;;;;28.51;32.89;99218.75;5109705;28;20511;-58
2022/07/16 00:36:48;;;;;;;0.98;0.77;;;;;;;28.51;33.10;99225.16;5111494;28;20081;-58
2022/07/16 00:39:15;;;;;;;1.23;0.70;;;;;;;28.46;33.11;99217.22;5111005;28;20040;-58
2022/07/16 00:41:42;;;;;;;1.05;0.77;;;;;;;28.46;33.08;99228.47;5111360;28;20415;-58
2022/07/16 00:44:09;;;;;;;1.17;0.88;;;;;;;28.45;33.09;99217.66;5110947;28;20127;-66
2022/07/16 00:46:37;;;;;;;1.02;0.68;;;;;;;28.44;33.30;99219.69;5111567;28;20054;-66
2022/07/16 00:49:03;;;;;;;1.00;0.70;;;;;;;28.49;33.17;99219.16;5111090;28;20043;-58
2022/07/16 00:51:29;;;;;;;0.98;0.63;;;;;;;28.47;33.21;99212.38;5107016;28;20093;-66
2022/07/16 00:53:56;;;;;;;1.02;0.65;;;;;;;28.47;32.98;99218.81;5099113;28;20041;-66
2022/07/16 00:56:22;;;;;;;1.10;0.85;;;;;;;28.47;33.26;99218.00;5098659;28;20122;-66
2022/07/16 00:58:49;;;;;;;0.88;0.70;;;;;;;28.45;33.03;99221.28;5109436;28;20050;-66
2022/07/16 01:01:16;;;;;;;1.00;0.70;;;;;;;28.48;33.11;99223.22;5107423;28;20519;-58
2022/07/16 01:03:42;;;;;;;0.98;0.70;;;;;;;28.48;33.09;99228.84;5090769;28;20059;-66
2022/07/16 01:06:08;;;;;;;1.48;0.90;;;;;;;28.46;33.11;99227.69;5101186;28;20043;-58
2022/07/16 01:08:35;;;;;;;1.00;0.77;;;;;;;28.44;33.10;99224.53;5109222;28;20040;-58
2022/07/16 01:11:04;;;;;;;1.30;0.80;;;;;;;28.41;33.25;99223.34;5109229;28;20067;-66
2022/07/16 01:13:30;;;;;;;1.08;0.70;;;;;;;28.42;32.91;99224.94;5106567;28;20036;-57
2022/07/16 01:15:55;;;;;;;1.27;0.70;;;;;;;28.42;33.38;99222.13;5094143;28;20055;-58
2022/07/16 01:18:21;;;;;;;1.00;0.70;;;;;;;28.42;33.34;99230.56;5093223;28;20044;-66
2022/07/16 01:20:46;;;;;;;1.25;0.75;;;;;;;28.41;32.93;99226.16;5110501;28;20368;-66
2022/07/16 01:23:23;;;;;;;1.20;0.80;;;;;;;28.42;33.75;99227.75;5100553;28;20035;-58
2022/07/16 01:25:48;;;;;;;1.20;0.90;;;;;;;28.43;33.22;99220.09;5098977;28;20420;-66
2022/07/16 01:28:14;;;;;;;1.23;0.90;;;;;;;28.43;33.30;99223.72;5101905;28;20042;-57
2022/07/16 01:30:40;;;;;;;2.85;0.80;;;;;;;28.43;33.23;99220.09;5097652;28;20044;-66
2022/07/16 01:33:23;;;;;;;2.03;0.90;;;;;;;28.42;33.27;99224.94;5100900;28;20089;-66
2022/07/16 01:35:49;;;;;;;;;;;;;;;28.47;33.24;99213.19;5098136;28;20085;-66
2022/07/16 01:38:15;;;;;;;1.50;1.00;;;;;;;28.43;33.18;99223.72;5100417;28;19916;-66
2022/07/16 01:40:40;;;;;;;0.85;0.70;;;;;;;28.42;33.01;99226.94;5102878;28;20046;-66
2022/07/16 01:43:21;;;;;;;1.70;0.98;;;;;;;28.41;33.38;99225.38;5099765;28;20059;-58
2022/07/16 01:45:46;;;;;;;1.05;0.80;;;;;;;28.40;33.31;99224.56;5098845;28;20515;-58
2022/07/16 01:48:13;;;;;;;1.70;0.82;;;;;;;28.37;33.46;99222.63;5106798;28;20054;-65
2022/07/16 01:50:40;;;;;;;1.08;0.82;;;;;;;28.38;33.48;99229.84;5103451;28;20074;-58
2022/07/16 01:53:06;;;;;;;0.93;0.80;;;;;;;28.38;33.31;99221.41;5108676;28;20406;-66
2022/07/16 01:55:33;;;;;;;1.20;0.85;;;;;;;28.39;33.55;99231.44;5106287;28;20039;-58
2022/07/16 01:57:59;;;;;;;1.30;0.80;;;;;;;28.39;33.61;99228.63;5102740;28;20440;-57
2022/07/16 02:00:25;;;;;;;1.00;0.80;;;;;;;28.38;33.55;99237.50;5104528;28;20031;-58
2022/07/16 02:02:50;;;;;;;1.42;0.90;;;;;;;28.37;33.53;99233.88;5092532;28;20061;-66
2022/07/16 02:05:16;;;;;;;1.35;0.90;;;;;;;28.36;33.53;99239.94;5091163;28;20093;-58
2022/07/16 02:07:41;;;;;;;1.10;0.80;;;;;;;28.39;33.63;99241.88;5093240;28;20707;-66
2022/07/16 02:10:07;;;;;;;0.90;0.70;;;;;;;28.37;33.47;99253.59;5094401;28;20048;-66
2022/07/16 02:12:32;;;;;;;1.88;1.00;;;;;;;28.39;33.41;99251.13;5102682;28;20051;-58
2022/07/16 02:14:58;;;;;;;1.50;0.70;;;;;;;28.38;33.54;99243.91;5105552;28;20039;-66
2022/07/16 02:17:24;;;;;;;1.67;0.90;;;;;;;28.39;33.44;99245.50;5101184;28;20028;-58
2022/07/16 02:19:49;;;;;;;1.45;0.90;;;;;;;28.40;33.53;99244.28;5102596;28;20056;-66
2022/07/16 02:22:15;;;;;;;1.50;0.90;;;;;;;28.35;33.55;99241.94;5101488;28;20110;-58
2022/07/16 02:24:41;;;;;;;1.27;0.90;;;;;;;28.36;33.48;99249.19;5098677;28;20040;-66
2022/07/16 02:27:07;;;;;;;0.95;0.70;;;;;;;28.35;33.73;99246.78;5104231;28;20043;-57
2022/07/16 02:29:32;;;;;;;1.30;0.90;;;;;;;28.35;33.68;99256.00;5104631;28;20039;-58
2022/07/16 02:31:58;;;;;;;1.48;0.80;;;;;;;28.35;33.57;99256.00;5106572;28;20126;-58
2022/07/16 02:34:23;;;;;;;1.35;0.85;;;;;;;28.36;33.58;99251.19;5103286;28;20090;-66
2022/07/16 02:36:49;;;;;;;1.02;0.70;;;;;;;28.35;33.53;99252.41;5104334;28;20075;-58
2022/07/16 02:39:14;;;;;;;1.27;0.90;;;;;;;28.39;33.46;99255.97;5107772;28;20057;-58
2022/07/16 02:41:40;;;;;;;1.27;0.80;;;;;;;28.35;33.47;99247.56;5102347;28;20040;-66
2022/07/16 02:44:05;;;;;;;1.08;0.77;;;;;;;28.34;33.50;99251.63;5095446;28;20085;-58
2022/07/16 02:46:30;;;;;;;0.98;0.70;;;;;;;28.36;33.65;99256.81;5096883;28;20032;-66
2022/07/16 02:48:56;;;;;;;1.15;0.80;;;;;;;28.37;33.50;99255.59;5103977;28;20040;-66
2022/07/16 02:51:21;;;;;;;1.05;0.75;;;;;;;28.36;33.53;99254.81;5104915;28;20468;-66
2022/07/16 02:53:46;;;;;;;1.02;0.73;;;;;;;28.36;33.60;99254.81;5095210;28;20036;-66
2022/07/16 02:56:12;;;;;;;1.15;0.82;;;;;;;28.31;33.60;99246.88;5098215;28;20047;-58
2022/07/16 02:58:37;;;;;;;1.33;0.93;;;;;;;28.31;33.65;99243.25;5103861;28;20570;-58
2022/07/16 03:01:03;;;;;;;1.00;0.70;;;;;;;28.31;33.62;99241.22;5102979;28;20051;-66
2022/07/16 03:03:29;;;;;;;1.17;0.88;;;;;;;28.29;33.92;99240.84;5101567;28;20055;-66
2022/07/16 03:05:54;;;;;;;1.10;0.80;;;;;;;28.31;33.74;99246.88;5106812;28;20051;-66
2022/07/16 03:08:19;;;;;;;1.20;0.80;;;;;;;28.33;33.62;99240.81;5107834;28;20047;-58
2022/07/16 03:10:45;;;;;;;1.30;0.90;;;;;;;28.34;33.72;99242.38;5106602;28;20040;-58
2022/07/16 03:13:11;;;;;;;1.80;0.90;;;;;;;28.32;33.71;99242.81;5109384;28;20052;-59
2022/07/16 03:15:36;;;;;;;1.33;0.95;;;;;;;28.34;33.80;99237.56;5108982;28;20044;-65
2022/07/16 03:18:02;;;;;;;1.10;0.80;;;;;;;28.36;33.86;99239.94;5109060;28;20054;-58
2022/07/16 03:20:27;;;;;;;0.98;0.70;;;;;;;28.31;33.82;99244.03;5100847;28;20039;-66
2022/07/16 03:22:52;;;;;;;1.25;0.90;;;;;;;28.30;33.92;99247.28;5100484;28;20048;-66
2022/07/16 03:25:18;;;;;;;1.38;0.90;;;;;;;28.29;33.86;99242.84;5106142;28;20043;-66
2022/07/16 03:27:43;;;;;;;1.45;0.90;;;;;;;28.26;33.92;99247.31;5106872;28;20044;-58
2022/07/16 03:30:10;;;;;;;1.27;0.90;;;;;;;28.25;33.98;99248.53;5108087;28;20046;-66
2022/07/16 03:32:36;;;;;;;1.30;0.90;;;;;;;28.28;34.13;99258.13;5108186;28;20085;-66
2022/07/16 03:35:08;;;;;;;3.70;1.05;;;;;;;28.28;33.93;99260.94;5104930;28;20052;-58
2022/07/16 03:37:34;;;;;;;1.30;1.00;;;;;;;28.27;34.00;99243.28;5112506;28;20062;-58
2022/07/16 03:39:59;;;;;;;1.30;0.90;;;;;;;28.30;33.71;99258.53;5111374;28;20040;-66
2022/07/16 03:42:25;;;;;;;1.13;0.90;;;;;;;28.29;33.88;99252.09;5108190;28;20113;-66
2022/07/16 03:44:50;;;;;;;1.40;0.80;;;;;;;28.30;33.84;99253.72;5105814;28;20031;-58
2022/07/16 03:47:16;;;;;;;1.42;0.88;;;;;;;28.30;33.79;99253.72;5105087;28;20586;-58
2022/07/16 03:49:41;;;;;;;1.33;0.80;;;;;;;28.29;33.84;99251.28;5102740;28;20050;-66
2022/07/16 03:52:06;;;;;;;1.73;1.10;;;;;;;28.28;33.83;99260.94;5108347;28;20123;-58
2022/07/16 03:54:32;;;;;;;1.13;0.80;;;;;;;28.29;33.98;99256.91;5100639;28;20044;-58
2022/07/16 03:56:57;;;;;;;1.10;0.90;;;;;;;28.25;33.90;99256.97;5107029;28;20051;-58
2022/07/16 03:59:23;;;;;;;1.73;1.00;;;;;;;28.28;33.98;99256.13;5106283;28;20074;-58
2022/07/16 04:01:48;;;;;;;1.27;0.88;;;;;;;28.24;33.97;99258.22;5108640;28;20046;-58
2022/07/16 04:04:14;;;;;;;1.05;0.80;;;;;;;28.28;34.05;99258.13;5106384;28;20051;-58
2022/07/16 04:06:40;;;;;;;1.30;0.88;;;;;;;28.28;33.85;99269.38;5105656;28;20088;-66
2022/07/16 04:09:06;;;;;;;1.33;0.90;;;;;;;28.25;34.06;99268.25;5107381;28;20403;-58
2022/07/16 04:11:31;;;;;;;1.52;1.05;;;;;;;28.25;34.17;99262.59;5105471;28;20039;-58
2022/07/16 04:13:57;;;;;;;1.55;1.02;;;;;;;28.27;33.99;99271.41;5108406;28;20042;-66
2022/07/16 04:16:22;;;;;;;1.27;0.80;;;;;;;28.25;33.82;99271.03;5109075;28;20040;-66
2022/07/16 04:18:48;;;;;;;1.15;0.80;;;;;;;28.25;34.08;99279.50;5105998;28;20052;-66
2022/07/16 04:21:14;;;;;;;1.38;0.88;;;;;;;28.25;34.06;99282.31;5111173;28;20073;-58
2022/07/16 04:23:40;;;;;;;1.17;0.80;;;;;;;28.24;34.14;99275.88;5104655;28;20032;-58
2022/07/16 04:26:05;;;;;;;2.33;0.90;;;;;;;28.25;34.00;99280.28;5104766;28;20040;-58
2022/07/16 04:28:31;;;;;;;0.98;0.80;;;;;;;28.25;34.10;99285.13;5109971;28;20044;-58
2022/07/16 04:30:56;;;;;;;1.45;0.90;;;;;;;28.25;34.25;99285.91;5105216;28;20031;-57
2022/07/16 04:33:22;;;;;;;1.38;0.90;;;;;;;28.27;34.22;99285.47;5104962;28;20424;-66
2022/07/16 04:35:48;;;;;;;1.30;0.90;;;;;;;28.22;34.02;99281.16;5099502;28;20173;-66
2022/07/16 04:38:14;;;;;;;1.25;0.90;;;;;;;28.25;34.09;99285.91;5101921;28;20051;-66
2022/07/16 04:40:40;;;;;;;1.48;0.88;;;;;;;28.27;34.43;99288.28;5109809;28;20040;-59
2022/07/16 04:43:05;;;;;;;1.25;0.80;;;;;;;28.26;34.39;99283.88;5097207;28;20055;-66
2022/07/16 04:45:30;;;;;;;1.20;0.80;;;;;;;28.26;34.09;99286.69;5111733;28;20100;-66
2022/07/16 04:47:56;;;;;;;1.60;0.90;;;;;;;28.24;34.37;99289.94;5109377;28;20035;-66
2022/07/16 04:50:21;;;;;;;1.15;0.90;;;;;;;28.26;34.39;99283.88;5105851;28;20055;-66
2022/07/16 04:52:47;;;;;;;1.60;1.00;;;;;;;28.27;34.51;99287.50;5094270;28;20411;-66
2022/07/16 04:55:12;;;;;;;1.30;0.95;;;;;;;28.23;34.53;99285.56;5107194;28;20031;-66
2022/07/16 04:57:37;;;;;;;1.40;0.90;;;;;;;28.24;34.44;99292.75;5111349;28;20430;-66
2022/07/16 05:00:05;;;;;;;1.00;0.80;;;;;;;28.25;34.60;99290.75;5103450;28;20114;-66
2022/07/16 05:05:19;;;;;;;1.17;0.82;;;;;;;28.24;34.74;99294.78;5104512;28;20043;-66
2022/07/16 05:07:45;;;;;;;1.35;0.93;;;;;;;28.23;34.89;99296.78;5102045;28;20044;-58
2022/07/16 05:10:11;;;;;;;1.20;0.80;;;;;;;28.26;34.84;99297.94;5107501;28;20058;-58
2022/07/16 05:12:37;;;;;;;1.60;1.00;;;;;;;28.27;34.66;99296.72;5105948;28;20423;-58
2022/07/16 05:15:03;;;;;;;1.15;0.77;;;;;;;28.27;34.96;99307.97;5100164;28;20105;-66
2022/07/16 05:17:29;;;;;;;0.80;0.73;;;;;;;28.27;34.98;99307.97;5101564;28;20138;-66
2022/07/16 05:19:54;;;;;;;1.67;0.90;;;;;;;28.27;34.85;99310.00;5104477;28;20139;-66
2022/07/16 05:22:20;;;;;;;1.08;0.80;;;;;;;28.28;34.89;99306.75;5106046;28;20565;-58
2022/07/16 05:24:45;;;;;;;1.50;1.00;;;;;;;28.25;35.22;99296.38;5103243;28;20444;-66
2022/07/16 05:27:10;;;;;;;1.45;0.90;;;;;;;28.27;35.17;99304.38;5103268;28;20977;-66
2022/07/16 05:29:36;;;;;;;1.02;0.80;;;;;;;28.27;35.14;99305.16;5106054;28;20043;-66
2022/07/16 05:32:01;;;;;;;1.67;0.90;;;;;;;28.28;35.07;99306.75;5104159;28;20036;-66
2022/07/16 05:34:27;;;;;;;1.23;0.80;;;;;;;28.29;35.11;99307.53;5102441;28;20709;-59
2022/07/16 05:36:52;;;;;;;1.58;0.90;;;;;;;28.29;35.26;99311.19;5106521;28;20040;-57
2022/07/16 05:39:17;;;;;;;1.55;0.90;;;;;;;28.27;35.31;99310.78;5105550;28;20078;-66
2022/07/16 05:41:43;;;;;;;1.33;0.88;;;;;;;28.30;35.29;99309.16;5100542;28;20503;-58
2022/07/16 05:44:08;;;;;;;1.50;0.93;;;;;;;28.31;35.22;99311.56;5102390;28;20526;-58
2022/07/16 05:46:33;;;;;;;1.20;0.80;;;;;;;28.28;35.24;99303.13;5097211;28;20093;-58
2022/07/16 05:48:59;;;;;;;0.95;0.80;;;;;;;28.29;35.15;99305.53;5102344;28;20044;-66
2022/07/16 05:51:24;;;;;;;1.20;0.77;;;;;;;28.32;35.08;99317.97;5110124;28;20586;-58
2022/07/16 05:53:50;;;;;;;1.40;1.02;;;;;;;28.33;35.11;99311.13;5105422;28;20051;-66
2022/07/16 05:56:15;;;;;;;1.40;0.90;;;;;;;28.31;35.11;99305.94;5100782;28;20469;-58
2022/07/16 05:58:40;;;;;;;1.30;0.90;;;;;;;28.36;35.07;99313.88;5109017;28;20092;-66
2022/07/16 06:01:06;;;;;;;1.30;0.93;;;;;;;28.35;35.27;99309.47;5103344;28;20080;-58
2022/07/16 06:03:31;;;;;;;1.60;1.10;;;;;;;28.41;34.70;99307.75;5076121;28;20044;-66
2022/07/16 06:05:57;;;;;;;1.40;0.90;;;;;;;28.35;35.41;99320.72;5091405;28;20475;-66
2022/07/16 06:08:22;;;;;;;0.95;0.77;;;;;;;28.23;35.49;99319.31;5102514;28;20055;-66
2022/07/16 06:10:48;;;;;;;1.20;0.90;;;;;;;28.18;35.51;99328.22;5110355;28;20131;-58
2022/07/16 06:13:13;;;;;;;1.20;0.80;;;;;;;28.19;35.48;99327.00;5110107;28;20070;-66
2022/07/16 06:15:39;;;;;;;1.45;0.90;;;;;;;28.18;35.35;99327.44;5089914;28;20055;-66
2022/07/16 06:18:05;;;;;;;1.00;0.80;;;;;;;28.14;35.46;99319.03;5095674;28;20048;-66
2022/07/16 06:20:30;;;;;;;1.00;0.73;;;;;;;28.16;35.49;99324.25;5105578;28;20084;-57
2022/07/16 06:22:57;;;;;;;1.45;0.90;;;;;;;28.20;35.44;99327.78;5099446;28;20040;-58
2022/07/16 06:25:23;;;;;;;1.85;0.95;;;;;;;28.17;35.47;99320.22;5092263;28;20148;-65
2022/07/16 06:27:49;;;;;;;1.02;0.80;;;;;;;28.17;35.51;99328.66;5108288;28;20066;-58
2022/07/16 06:30:15;;;;;;;1.25;0.90;;;;;;;28.19;35.41;99327.00;5109224;28;20435;-66
2022/07/16 06:32:41;;;;;;;1.50;0.95;;;;;;;28.23;35.54;99332.56;5101813;28;20089;-66
2022/07/16 06:35:07;;;;;;;1.00;0.77;;;;;;;28.23;35.33;99332.56;5100833;28;20127;-58
2022/07/16 06:37:33;;;;;;;1.05;0.80;;;;;;;28.26;35.21;99326.06;5102455;28;20036;-58
2022/07/16 06:39:58;;;;;;;1.13;0.80;;;;;;;28.24;35.33;99332.13;5109304;28;20047;-58
2022/07/16 06:42:23;;;;;;;1.20;0.80;;;;;;;28.28;35.13;99329.25;5108472;28;20040;-58
2022/07/16 06:44:49;;;;;;;1.35;1.00;;;;;;;28.29;35.08;99330.88;5100162;28;20046;-66
2022/07/16 06:47:14;;;;;;;1.00;0.80;;;;;;;28.26;35.46;99331.69;5089119;28;20051;-66
2022/07/16 06:49:40;;;;;;;0.93;0.70;;;;;;;28.25;35.21;99328.09;5091184;28;20101;-57
2022/07/16 06:52:05;;;;;;;1.35;0.88;;;;;;;28.24;35.52;99334.94;5100945;28;20043;-66
2022/07/16 06:54:31;;;;;;;1.45;0.95;;;;;;;28.22;35.37;99328.97;5099052;28;20036;-66
2022/07/16 06:56:56;;;;;;;1.15;0.80;;;;;;;28.25;35.33;99325.28;5103304;28;20048;-65
2022/07/16 06:59:22;;;;;;;1.23;0.90;;;;;;;28.28;35.46;99331.28;5113044;28;20047;-66
2022/07/16 07:01:47;;;;;;;1.25;0.88;;;;;;;28.21;35.29;99324.53;5112731;28;20039;-57
2022/07/16 07:04:12;;;;;;;1.33;0.90;;;;;;;28.26;35.16;99326.06;5112681;28;20035;-58
2022/07/16 07:06:38;;;;;;;1.45;1.00;;;;;;;28.29;35.23;99336.50;5112893;28;20044;-66
2022/07/16 07:09:03;;;;;;;1.25;0.85;;;;;;;28.27;35.20;99324.06;5098266;28;20492;-66
2022/07/16 07:11:29;;;;;;;1.23;0.82;;;;;;;28.30;35.36;99329.66;5113082;28;20578;-58
2022/07/16 07:13:54;;;;;;;1.10;0.80;;;;;;;28.27;35.01;99324.06;5112561;28;20040;-58
2022/07/16 07:16:19;;;;;;;1.23;0.88;;;;;;;28.30;35.14;99342.91;5112646;28;20051;-58
2022/07/16 07:18:45;;;;;;;1.27;0.90;;;;;;;28.28;35.18;99334.09;5098188;28;20415;-58
2022/07/16 07:21:10;;;;;;;1.17;0.80;;;;;;;28.31;34.89;99339.69;5099910;28;20480;-58
2022/07/16 07:23:36;;;;;;;1.20;0.82;;;;;;;28.25;35.16;99330.13;5105736;28;20051;-57
2022/07/16 07:26:01;;;;;;;1.23;0.88;;;;;;;28.27;35.24;99333.28;5109746;28;20050;-66
2022/07/16 07:28:28;;;;;;;1.20;0.90;;;;;;;28.25;35.16;99330.13;5112494;28;20407;-58
2022/07/16 07:30:54;;;;;;;1.40;1.00;;;;;;;28.29;35.06;99338.47;5112678;28;20051;-58
2022/07/16 07:33:20;;;;;;;1.52;0.90;;;;;;;28.30;34.90;99340.91;5112596;28;20131;-58
2022/07/16 07:35:46;;;;;;;1.60;1.05;;;;;;;28.26;35.15;99345.75;5092646;28;20135;-58
2022/07/16 07:38:11;;;;;;;1.35;0.85;;;;;;;28.24;35.36;99337.75;5103939;28;20502;-66
2022/07/16 07:40:37;;;;;;;1.45;0.90;;;;;;;28.20;35.10;99331.38;5108784;28;20042;-58
2022/07/16 07:43:04;;;;;;;1.20;0.90;;;;;;;28.22;35.03;99330.97;5104439;28;20032;-66
2022/07/16 07:45:29;;;;;;;1.13;0.85;;;;;;;28.18;35.02;99330.25;5106252;28;20191;-58
2022/07/16 07:47:55;;;;;;;1.27;0.90;;;;;;;28.23;35.07;99329.75;5112170;28;20142;-65
2022/07/16 07:50:20;;;;;;;1.15;0.88;;;;;;;28.21;35.10;99327.34;5106881;28;20444;-66
2022/07/16 07:52:46;;;;;;;1.23;0.80;;;;;;;28.22;35.10;99325.38;5105469;28;20127;-57
2022/07/16 07:55:11;;;;;;;1.48;0.95;;;;;;;28.23;35.31;99319.31;5106338;28;20051;-66
2022/07/16 07:57:37;;;;;;;1.45;1.00;;;;;;;28.23;35.25;99324.94;5111855;28;20046;-66
2022/07/16 08:00:05;;;;;;;1.10;0.80;;;;;;;28.17;35.29;99323.81;5110872;28;20040;-66
2022/07/16 08:02:30;;;;;;;1.40;0.90;;;;;;;28.20;35.20;99327.78;5111182;28;20039;-58
2022/07/16 08:04:56;;;;;;;1.27;0.80;;;;;;;28.23;34.96;99324.13;5099616;28;20040;-58
2022/07/16 08:07:21;;;;;;;1.17;0.80;;;;;;;28.23;35.15;99315.69;5111877;28;20067;-66
2022/07/16 08:09:47;;;;;;;1.00;0.80;;;;;;;28.24;35.20;99320.88;5098613;28;20458;-58
2022/07/16 08:12:12;;;;;;;1.23;0.82;;;;;;;28.23;35.04;99310.88;5110657;28;20040;-66
2022/07/16 08:14:38;;;;;;;1.10;0.70;;;;;;;28.25;34.98;99319.66;5106272;28;20043;-66
2022/07/16 08:17:03;;;;;;;1.20;0.80;;;;;;;28.25;35.13;99321.69;5104075;28;20073;-66
2022/07/16 08:19:30;;;;;;;1.05;0.70;;;;;;;28.25;35.06;99318.88;5099948;28;20036;-57
2022/07/16 08:21:56;;;;;;;1.23;0.90;;;;;;;28.28;34.89;99315.19;5105085;28;20142;-66
2022/07/16 08:27:06;;;;;;;1.70;0.90;;;;;;;28.30;34.96;99323.22;5104107;28;20454;-65
2022/07/16 08:29:32;;;;;;;0.90;0.75;;;;;;;28.28;35.03;99317.19;5103610;28;20044;-57
2022/07/16 08:31:57;;;;;;;1.30;0.80;;;;;;;28.29;34.87;99318.78;5102841;28;20043;-66
2022/07/16 08:34:23;;;;;;;1.35;0.90;;;;;;;28.24;34.95;99308.84;5105961;28;20680;-66
2022/07/16 08:36:50;;;;;;;1.70;1.08;;;;;;;28.26;35.01;99314.81;5108438;28;20474;-58
2022/07/16 08:39:15;;;;;;;1.00;0.70;;;;;;;28.27;34.99;99316.41;5105517;28;20066;-66
2022/07/16 08:41:42;;;;;;;1.38;0.90;;;;;;;28.29;35.11;99318.78;5105386;28;20403;-58
2022/07/16 08:44:09;;;;;;;1.30;0.95;;;;;;;28.25;35.07;99313.25;5108970;28;20079;-58
2022/07/16 08:46:35;;;;;;;1.17;0.85;;;;;;;28.29;34.87;99319.63;5084029;28;20040;-66
2022/07/16 08:49:01;;;;;;;1.17;0.80;;;;;;;28.33;34.89;99313.94;5103291;28;20027;-59
2022/07/16 08:51:35;;;;;;;1.45;0.93;;;;;;;28.32;34.82;99320.78;5109029;28;20059;-57
2022/07/16 08:54:06;;;;;;;1.15;0.80;;;;;;;28.33;34.97;99303.47;5091280;28;20512;-57
2022/07/16 08:56:34;;;;;;;1.30;0.90;;;;;;;28.37;34.87;99312.66;5101323;28;20134;-58
2022/07/16 08:59:01;;;;;;;1.30;0.90;;;;;;;28.38;34.85;99317.06;5104770;28;20418;-66
2022/07/16 09:01:29;;;;;;;1.25;0.88;;;;;;;28.38;34.87;99307.81;5100955;28;20119;-66
2022/07/16 09:03:59;;;;;;;1.50;1.00;;;;;;;28.33;34.94;99303.47;5104346;28;20071;-59
2022/07/16 09:06:25;;;;;;;1.20;0.90;;;;;;;28.40;35.01;99306.16;5099776;28;20100;-66
2022/07/16 09:08:51;;;;;;;1.33;0.90;;;;;;;28.37;35.11;99311.88;5109241;28;20039;-57
2022/07/16 09:11:24;;;;;;;1.50;0.90;;;;;;;28.39;35.10;99307.41;5106123;28;20088;-57
2022/07/16 09:14:03;;;;;;;1.35;0.80;;;;;;;28.42;34.95;99306.53;5107225;28;20453;-58
2022/07/16 09:16:38;;;;;;;1.02;0.77;;;;;;;28.45;35.06;99305.69;5110802;28;20043;-58
2022/07/16 09:19:12;;;;;;;1.58;0.90;;;;;;;28.43;34.96;99305.31;5104853;28;20301;-58
2022/07/16 09:22:06;;;;;;;1.02;0.80;;;;;;;28.43;34.99;99299.69;5106474;28;20114;-66
2022/07/16 09:24:45;;;;;;;1.45;0.90;;;;;;;28.44;35.03;99304.09;5101128;28;20035;-57
2022/07/16 09:27:17;;;;;;;1.35;0.90;;;;;;;28.46;34.99;99290.38;5106634;28;20123;-66
2022/07/16 09:29:48;;;;;;;1.30;0.80;;;;;;;28.46;35.03;99300.84;5096049;28;20130;-58
2022/07/16 09:32:30;;;;;;;1.23;0.93;;;;;;;28.48;34.79;99290.72;5107682;28;20047;-66
2022/07/16 09:35:16;;;;;;;1.00;0.70;;;;;;;28.47;34.82;99286.34;5105764;28;20142;-58
2022/07/16 09:37:54;;;;;;;1.17;0.98;;;;;;;28.47;34.98;99297.59;5103121;28;20050;-66
2022/07/16 09:40:40;;;;;;;1.25;0.80;;;;;;;28.47;34.90;99285.53;5109667;28;20035;-66
2022/07/16 09:43:15;;;;;;;1.67;1.20;;;;;;;28.46;34.91;99281.94;5106783;28;20031;-57
2022/07/16 09:45:46;;;;;;;1.00;0.73;;;;;;;28.49;34.84;99286.69;5107181;28;20049;-66
2022/07/16 09:48:25;;;;;;;1.50;1.00;;;;;;;28.47;34.79;99283.53;5107795;28;20078;-58
2022/07/16 09:50:53;;;;;;;1.25;0.90;;;;;;;28.48;34.87;99281.50;5095845;28;20503;-66
2022/07/16 09:53:26;;;;;;;1.48;1.00;;;;;;;28.50;34.95;99279.88;5103100;28;20511;-66
2022/07/16 09:55:54;;;;;;;1.25;0.90;;;;;;;28.49;34.77;99272.63;5098853;28;20329;-65
2022/07/16 09:58:19;;;;;;;1.48;0.95;;;;;;;28.47;34.88;99263.03;5103193;28;20053;-58
2022/07/16 10:00:45;;;;;;;0.90;0.70;;;;;;;28.49;34.89;99267.00;5101207;28;20148;-57
2022/07/16 10:03:11;;;;;;;1.08;0.82;;;;;;;28.54;34.60;99262.91;5107784;28;20826;-66
2022/07/16 10:05:36;;;;;;;1.23;0.90;;;;;;;28.49;34.95;99257.75;5106786;28;20120;-58
2022/07/16 10:08:02;;;;;;;1.13;0.90;;;;;;;28.50;34.95;99262.97;5096114;28;20082;-58
2022/07/16 10:10:28;;;;;;;1.20;0.90;;;;;;;28.49;34.90;99263.38;5102365;28;20075;-66
2022/07/16 10:12:53;;;;;;;1.33;0.90;;;;;;;28.49;35.02;99257.75;5106130;28;20074;-57
2022/07/16 10:15:20;;;;;;;1.27;0.90;;;;;;;28.52;34.88;99257.72;5098052;28;20384;-66
2022/07/16 10:17:45;;;;;;;1.08;0.90;;;;;;;28.51;35.19;99258.94;5097833;28;20093;-57
2022/07/16 10:20:12;;;;;;;1.50;0.95;;;;;;;28.48;35.10;99247.75;5104421;28;20452;-66
2022/07/16 10:22:44;;;;;;;1.40;0.95;;;;;;;28.48;35.23;99254.16;5101830;28;20031;-66
2022/07/16 10:25:13;;;;;;;1.33;0.90;;;;;;;28.54;35.18;99251.66;5095790;28;20092;-66
2022/07/16 10:27:39;;;;;;;1.45;0.90;;;;;;;28.57;35.34;99249.97;5103537;28;20035;-66
2022/07/16 10:30:31;;;;;;;1.60;1.10;;;;;;;28.56;35.14;99245.56;5106631;28;20089;-66
2022/07/16 10:33:20;;;;;;;1.53;0.90;;;;;;;28.57;35.11;99245.13;5101045;28;20039;-66
2022/07/16 10:35:47;;;;;;;1.63;1.00;;;;;;;28.59;35.04;99239.09;5094689;28;20051;-66
2022/07/16 10:38:20;;;;;;;1.10;0.88;;;;;;;28.55;35.35;99241.19;5106265;28;20046;-65
2022/07/16 10:40:46;;;;;;;;;;;;;;;28.61;35.18;99240.25;5103828;28;20043;-58
2022/07/16 10:43:22;;;;;;;1.75;0.95;;;;;;;28.62;35.25;99241.81;5101595;28;20017;-57
2022/07/16 10:45:49;;;;;;;0.73;0.60;;;;;;;28.63;35.24;99237.00;5103558;28;20672;-66
2022/07/16 10:48:14;;;;;;;2.60;1.00;;;;;;;28.58;35.43;99237.53;5099631;28;20054;-58
2022/07/16 10:50:40;;;;;;;1.15;0.82;;;;;;;28.55;35.36;99238.38;5105784;28;20488;-58
2022/07/16 10:53:05;;;;;;;1.50;0.93;;;;;;;28.58;35.49;99223.44;5106610;28;20043;-66
2022/07/16 10:55:38;;;;;;;1.05;0.80;;;;;;;28.57;35.38;99216.19;5101883;28;20040;-66
2022/07/16 10:58:04;;;;;;;1.33;0.98;;;;;;;28.59;35.26;99220.19;5106898;28;20050;-66
2022/07/16 11:00:30;;;;;;;1.17;0.80;;;;;;;28.58;35.51;99220.63;5097474;28;20044;-66
2022/07/16 11:03:01;;;;;;;1.40;0.90;;;;;;;28.60;35.57;99221.78;5095065;28;20044;-65
2022/07/16 11:05:28;;;;;;;1.60;1.00;;;;;;;28.62;35.50;99212.91;5109410;28;20367;-57
2022/07/16 11:07:54;;;;;;;1.40;0.90;;;;;;;28.64;35.61;99210.44;5103868;28;20499;-57
2022/07/16 11:10:23;;;;;;;1.48;0.85;;;;;;;28.59;35.39;99219.41;5103986;28;20052;-66
2022/07/16 11:12:51;;;;;;;1.30;0.80;;;;;;;28.48;35.96;99226.03;5109056;28;20544;-66
2022/07/16 11:15:17;;;;;;;0.98;0.70;;;;;;;28.40;36.08;99218.16;5100812;28;20038;-65
2022/07/16 11:17:42;;;;;;;1.00;0.70;;;;;;;28.35;36.20;99213.03;5108724;28;20051;-57
2022/07/16 11:20:09;;;;;;;1.33;0.90;;;;;;;28.34;36.37;99205.81;5098571;28;20116;-66
2022/07/16 11:22:35;;;;;;;1.20;0.90;;;;;;;28.36;36.11;99200.53;5109442;28;20067;-57
2022/07/16 11:25:05;;;;;;;1.13;0.85;;;;;;;28.45;36.03;99210.00;5101699;28;20124;-66
2022/07/16 11:27:32;;;;;;;1.60;0.80;;;;;;;28.51;35.91;99205.47;5101420;28;20036;-66
2022/07/16 11:29:59;;;;;;;1.15;0.80;;;;;;;28.54;35.85;99211.44;5104126;28;20420;-66
2022/07/16 11:32:26;;;;;;;1.30;0.85;;;;;;;28.56;36.07;99197.75;5104427;28;20146;-58
2022/07/16 11:34:52;;;;;;;1.13;0.80;;;;;;;28.56;35.98;99197.75;5103421;28;20048;-58
2022/07/16 11:37:17;;;;;;;1.60;1.00;;;;;;;28.52;36.07;99195.81;5104990;28;20040;-57
2022/07/16 11:39:43;;;;;;;0.77;0.60;;;;;;;28.52;35.94;99181.72;5104951;28;20453;-57